sensor_id;sensor_type;location;lat;lon;timestamp;P1;durP1;ratioP1;P2;durP2;ratioP2
37237;SDS011;23129;49.662;8.448;2023-07-08T00:01:10;16.45;;;7.25;;
37237;SDS011;23129;49.662;8.448;2023-07-08T00:03:40;14.88;;;7.03;;
37237;SDS011;23129;49.662;8.448;2023-07-08T00:06:11;15.65;;;7.72;;
37237;SDS011;23129;49.662;8.448;2023-07-08T00:11:14;12.75;;;6.82;;
37237;SDS011;23129;49.662;8.448;2023-07-08T00:13:44;14.93;;;6.53;;
37237;SDS011;23129;49.662;8.448;2023-07-08T00:16:14;16.20;;;8.20;;
37237;SDS011;23129;49.662;8.448;2023-07-08T00:18:45;14.35;;;7.10;;
37237;SDS011;23129;49.662;8.448;2023-07-08T00:21:16;16.33;;;7.18;;
37237;SDS011;23129;49.662;8.448;2023-07-08T00:23:47;12.95;;;6.72;;
37237;SDS011;23129;49.662;8.448;2023-07-08T00:26:18;16.95;;;7.93;;
37237;SDS011;23129;49.662;8.448;2023-07-08T00:28:50;16.55;;;6.50;;
37237;SDS011;23129;49.662;8.448;2023-07-08T00:31:19;16.17;;;7.32;;
37237;SDS011;23129;49.662;8.448;2023-07-08T00:33:51;18.95;;;7.93;;
37237;SDS011;23129;49.662;8.448;2023-07-08T00:36:22;16.58;;;7.18;;
37237;SDS011;23129;49.662;8.448;2023-07-08T00:38:54;17.67;;;8.38;;
37237;SDS011;23129;49.662;8.448;2023-07-08T00:41:24;12.35;;;7.30;;
37237;SDS011;23129;49.662;8.448;2023-07-08T00:43:56;24.15;;;7.30;;
37237;SDS011;23129;49.662;8.448;2023-07-08T00:46:34;20.02;;;7.03;;
37237;SDS011;23129;49.662;8.448;2023-07-08T00:49:17;16.25;;;7.35;;
37237;SDS011;23129;49.662;8.448;2023-07-08T00:51:51;17.85;;;8.15;;
37237;SDS011;23129;49.662;8.448;2023-07-08T00:54:21;16.48;;;6.53;;
37237;SDS011;23129;49.662;8.448;2023-07-08T00:56:50;16.88;;;8.07;;
37237;SDS011;23129;49.662;8.448;2023-07-08T00:59:23;15.52;;;7.43;;
37237;SDS011;23129;49.662;8.448;2023-07-08T01:01:56;13.63;;;7.22;;
37237;SDS011;23129;49.662;8.448;2023-07-08T01:04:30;15.57;;;6.88;;
37237;SDS011;23129;49.662;8.448;2023-07-08T01:07:05;18.58;;;7.15;;
37237;SDS011;23129;49.662;8.448;2023-07-08T01:09:37;24.08;;;7.57;;
37237;SDS011;23129;49.662;8.448;2023-07-08T01:12:11;16.30;;;8.80;;
37237;SDS011;23129;49.662;8.448;2023-07-08T01:14:43;28.40;;;9.30;;
37237;SDS011;23129;49.662;8.448;2023-07-08T01:17:14;18.35;;;7.10;;
37237;SDS011;23129;49.662;8.448;2023-07-08T01:19:44;14.90;;;8.30;;
37237;SDS011;23129;49.662;8.448;2023-07-08T01:22:15;21.90;;;8.20;;
37237;SDS011;23129;49.662;8.448;2023-07-08T01:24:43;14.07;;;7.63;;
37237;SDS011;23129;49.662;8.448;2023-07-08T01:27:14;16.55;;;7.75;;
37237;SDS011;23129;49.662;8.448;2023-07-08T01:29:45;15.18;;;7.20;;
37237;SDS011;23129;49.662;8.448;2023-07-08T01:32:14;13.07;;;6.88;;
37237;SDS011;23129;49.662;8.448;2023-07-08T01:34:46;13.43;;;7.13;;
37237;SDS011;23129;49.662;8.448;2023-07-08T01:37:30;11.25;;;6.90;;
37237;SDS011;23129;49.662;8.448;2023-07-08T01:40:14;10.15;;;5.80;;
37237;SDS011;23129;49.662;8.448;2023-07-08T01:42:51;18.85;;;7.00;;
37237;SDS011;23129;49.662;8.448;2023-07-08T01:45:21;11.45;;;6.95;;
37237;SDS011;23129;49.662;8.448;2023-07-08T01:47:53;15.15;;;6.47;;
37237;SDS011;23129;49.662;8.448;2023-07-08T01:50:28;14.02;;;6.68;;
37237;SDS011;23129;49.662;8.448;2023-07-08T01:53:01;14.05;;;7.32;;
37237;SDS011;23129;49.662;8.448;2023-07-08T01:55:38;13.75;;;6.10;;
37237;SDS011;23129;49.662;8.448;2023-07-08T01:58:06;13.20;;;7.00;;
37237;SDS011;23129;49.662;8.448;2023-07-08T02:00:35;17.48;;;7.03;;
37237;SDS011;23129;49.662;8.448;2023-07-08T02:03:04;11.50;;;6.80;;
37237;SDS011;23129;49.662;8.448;2023-07-08T02:05:32;21.52;;;7.18;;
37237;SDS011;23129;49.662;8.448;2023-07-08T02:08:04;15.52;;;7.10;;
37237;SDS011;23129;49.662;8.448;2023-07-08T02:10:33;11.32;;;6.78;;
37237;SDS011;23129;49.662;8.448;2023-07-08T02:13:01;20.25;;;6.80;;
37237;SDS011;23129;49.662;8.448;2023-07-08T02:15:30;15.82;;;7.10;;
37237;SDS011;23129;49.662;8.448;2023-07-08T02:17:59;18.98;;;7.18;;
37237;SDS011;23129;49.662;8.448;2023-07-08T02:20:28;16.00;;;7.05;;
37237;SDS011;23129;49.662;8.448;2023-07-08T02:22:56;14.30;;;6.45;;
37237;SDS011;23129;49.662;8.448;2023-07-08T02:25:26;12.90;;;7.43;;
37237;SDS011;23129;49.662;8.448;2023-07-08T02:27:55;12.45;;;6.68;;
37237;SDS011;23129;49.662;8.448;2023-07-08T02:30:24;12.95;;;6.90;;
37237;SDS011;23129;49.662;8.448;2023-07-08T02:32:53;13.45;;;6.72;;
37237;SDS011;23129;49.662;8.448;2023-07-08T02:35:24;13.43;;;6.63;;
37237;SDS011;23129;49.662;8.448;2023-07-08T02:37:55;14.43;;;6.88;;
37237;SDS011;23129;49.662;8.448;2023-07-08T02:40:25;19.67;;;6.90;;
37237;SDS011;23129;49.662;8.448;2023-07-08T02:42:55;15.70;;;6.65;;
37237;SDS011;23129;49.662;8.448;2023-07-08T02:45:23;15.48;;;6.72;;
37237;SDS011;23129;49.662;8.448;2023-07-08T02:47:52;16.10;;;7.13;;
37237;SDS011;23129;49.662;8.448;2023-07-08T02:50:21;9.52;;;5.75;;
37237;SDS011;23129;49.662;8.448;2023-07-08T02:52:51;13.43;;;6.68;;
37237;SDS011;23129;49.662;8.448;2023-07-08T02:55:19;13.30;;;6.97;;
37237;SDS011;23129;49.662;8.448;2023-07-08T02:57:50;20.77;;;6.30;;
37237;SDS011;23129;49.662;8.448;2023-07-08T03:00:19;20.50;;;6.68;;
37237;SDS011;23129;49.662;8.448;2023-07-08T03:02:48;13.75;;;7.38;;
37237;SDS011;23129;49.662;8.448;2023-07-08T03:05:17;19.95;;;7.35;;
37237;SDS011;23129;49.662;8.448;2023-07-08T03:07:45;20.33;;;7.68;;
37237;SDS011;23129;49.662;8.448;2023-07-08T03:10:14;18.48;;;7.18;;
37237;SDS011;23129;49.662;8.448;2023-07-08T03:12:42;17.70;;;7.03;;
37237;SDS011;23129;49.662;8.448;2023-07-08T03:15:12;22.00;;;7.25;;
37237;SDS011;23129;49.662;8.448;2023-07-08T03:17:41;17.10;;;6.63;;
37237;SDS011;23129;49.662;8.448;2023-07-08T03:20:10;10.95;;;6.15;;
37237;SDS011;23129;49.662;8.448;2023-07-08T03:22:39;14.23;;;7.18;;
37237;SDS011;23129;49.662;8.448;2023-07-08T03:25:08;25.08;;;6.80;;
37237;SDS011;23129;49.662;8.448;2023-07-08T03:27:37;19.52;;;6.90;;
37237;SDS011;23129;49.662;8.448;2023-07-08T03:30:07;12.55;;;6.82;;
37237;SDS011;23129;49.662;8.448;2023-07-08T03:32:38;12.23;;;6.15;;
37237;SDS011;23129;49.662;8.448;2023-07-08T03:35:07;12.48;;;6.30;;
37237;SDS011;23129;49.662;8.448;2023-07-08T03:37:36;11.70;;;7.05;;
37237;SDS011;23129;49.662;8.448;2023-07-08T03:40:07;13.52;;;6.43;;
37237;SDS011;23129;49.662;8.448;2023-07-08T03:42:37;14.27;;;7.00;;
37237;SDS011;23129;49.662;8.448;2023-07-08T03:45:06;10.57;;;6.10;;
37237;SDS011;23129;49.662;8.448;2023-07-08T03:47:35;10.60;;;6.43;;
37237;SDS011;23129;49.662;8.448;2023-07-08T03:50:09;16.63;;;6.90;;
37237;SDS011;23129;49.662;8.448;2023-07-08T03:52:44;13.52;;;6.57;;
37237;SDS011;23129;49.662;8.448;2023-07-08T03:55:13;16.92;;;5.25;;
37237;SDS011;23129;49.662;8.448;2023-07-08T03:57:42;16.20;;;6.60;;
37237;SDS011;23129;49.662;8.448;2023-07-08T04:00:11;13.75;;;6.70;;
37237;SDS011;23129;49.662;8.448;2023-07-08T04:02:42;9.75;;;6.30;;
37237;SDS011;23129;49.662;8.448;2023-07-08T04:05:18;18.80;;;7.05;;
37237;SDS011;23129;49.662;8.448;2023-07-08T04:07:48;10.88;;;6.22;;
37237;SDS011;23129;49.662;8.448;2023-07-08T04:10:17;13.88;;;6.60;;
37237;SDS011;23129;49.662;8.448;2023-07-08T04:12:46;10.98;;;6.28;;
37237;SDS011;23129;49.662;8.448;2023-07-08T04:15:14;18.83;;;6.70;;
37237;SDS011;23129;49.662;8.448;2023-07-08T04:17:45;11.80;;;6.65;;
37237;SDS011;23129;49.662;8.448;2023-07-08T04:20:16;19.45;;;6.28;;
37237;SDS011;23129;49.662;8.448;2023-07-08T04:22:46;10.30;;;5.93;;
37237;SDS011;23129;49.662;8.448;2023-07-08T04:25:15;15.27;;;6.28;;
37237;SDS011;23129;49.662;8.448;2023-07-08T04:27:45;10.15;;;5.57;;
37237;SDS011;23129;49.662;8.448;2023-07-08T04:30:18;11.05;;;6.07;;
37237;SDS011;23129;49.662;8.448;2023-07-08T04:32:52;10.38;;;6.57;;
37237;SDS011;23129;49.662;8.448;2023-07-08T04:35:22;18.33;;;7.35;;
37237;SDS011;23129;49.662;8.448;2023-07-08T04:37:51;10.55;;;5.95;;
37237;SDS011;23129;49.662;8.448;2023-07-08T04:40:21;13.48;;;6.13;;
37237;SDS011;23129;49.662;8.448;2023-07-08T04:42:49;20.83;;;6.43;;
37237;SDS011;23129;49.662;8.448;2023-07-08T04:45:18;12.55;;;6.28;;
37237;SDS011;23129;49.662;8.448;2023-07-08T04:47:47;11.57;;;6.78;;
37237;SDS011;23129;49.662;8.448;2023-07-08T04:50:21;13.85;;;6.53;;
37237;SDS011;23129;49.662;8.448;2023-07-08T04:52:49;13.07;;;6.13;;
37237;SDS011;23129;49.662;8.448;2023-07-08T04:55:18;13.18;;;6.38;;
37237;SDS011;23129;49.662;8.448;2023-07-08T04:57:47;11.70;;;5.72;;
37237;SDS011;23129;49.662;8.448;2023-07-08T05:00:16;16.83;;;5.82;;
37237;SDS011;23129;49.662;8.448;2023-07-08T05:02:46;10.93;;;5.57;;
37237;SDS011;23129;49.662;8.448;2023-07-08T05:05:15;9.98;;;5.78;;
37237;SDS011;23129;49.662;8.448;2023-07-08T05:07:45;17.95;;;7.15;;
37237;SDS011;23129;49.662;8.448;2023-07-08T05:10:15;13.90;;;6.90;;
37237;SDS011;23129;49.662;8.448;2023-07-08T05:12:45;11.27;;;6.28;;
37237;SDS011;23129;49.662;8.448;2023-07-08T05:15:14;11.10;;;6.32;;
37237;SDS011;23129;49.662;8.448;2023-07-08T05:17:43;9.82;;;6.30;;
37237;SDS011;23129;49.662;8.448;2023-07-08T05:20:13;11.95;;;6.10;;
37237;SDS011;23129;49.662;8.448;2023-07-08T05:22:46;17.98;;;6.82;;
37237;SDS011;23129;49.662;8.448;2023-07-08T05:25:15;11.80;;;6.07;;
37237;SDS011;23129;49.662;8.448;2023-07-08T05:27:45;9.35;;;6.05;;
37237;SDS011;23129;49.662;8.448;2023-07-08T05:30:15;9.73;;;5.75;;
37237;SDS011;23129;49.662;8.448;2023-07-08T05:32:45;13.13;;;5.90;;
37237;SDS011;23129;49.662;8.448;2023-07-08T05:35:14;15.35;;;6.78;;
37237;SDS011;23129;49.662;8.448;2023-07-08T05:37:46;8.57;;;5.57;;
37237;SDS011;23129;49.662;8.448;2023-07-08T05:40:14;13.32;;;5.68;;
37237;SDS011;23129;49.662;8.448;2023-07-08T05:42:43;8.68;;;5.38;;
37237;SDS011;23129;49.662;8.448;2023-07-08T05:45:12;13.30;;;5.70;;
37237;SDS011;23129;49.662;8.448;2023-07-08T05:47:41;8.38;;;5.53;;
37237;SDS011;23129;49.662;8.448;2023-07-08T05:50:09;16.55;;;5.68;;
37237;SDS011;23129;49.662;8.448;2023-07-08T05:52:38;12.18;;;6.13;;
37237;SDS011;23129;49.662;8.448;2023-07-08T05:55:08;12.27;;;5.47;;
37237;SDS011;23129;49.662;8.448;2023-07-08T05:57:37;13.93;;;5.25;;
37237;SDS011;23129;49.662;8.448;2023-07-08T06:00:06;9.95;;;5.70;;
37237;SDS011;23129;49.662;8.448;2023-07-08T06:02:40;10.57;;;5.45;;
37237;SDS011;23129;49.662;8.448;2023-07-08T06:05:08;25.27;;;5.63;;
37237;SDS011;23129;49.662;8.448;2023-07-08T06:07:37;11.95;;;6.22;;
37237;SDS011;23129;49.662;8.448;2023-07-08T06:10:06;12.88;;;5.60;;
37237;SDS011;23129;49.662;8.448;2023-07-08T06:12:36;15.60;;;6.38;;
37237;SDS011;23129;49.662;8.448;2023-07-08T06:15:05;12.23;;;6.03;;
37237;SDS011;23129;49.662;8.448;2023-07-08T06:17:35;9.68;;;5.82;;
37237;SDS011;23129;49.662;8.448;2023-07-08T06:20:04;11.52;;;5.93;;
37237;SDS011;23129;49.662;8.448;2023-07-08T06:22:34;18.80;;;6.68;;
37237;SDS011;23129;49.662;8.448;2023-07-08T06:25:14;16.70;;;6.88;;
37237;SDS011;23129;49.662;8.448;2023-07-08T06:27:42;9.48;;;5.70;;
37237;SDS011;23129;49.662;8.448;2023-07-08T06:30:11;11.35;;;6.22;;
37237;SDS011;23129;49.662;8.448;2023-07-08T06:32:40;8.00;;;5.60;;
37237;SDS011;23129;49.662;8.448;2023-07-08T06:35:08;10.35;;;4.93;;
37237;SDS011;23129;49.662;8.448;2023-07-08T06:37:37;9.35;;;5.95;;
37237;SDS011;23129;49.662;8.448;2023-07-08T06:40:06;9.20;;;5.53;;
37237;SDS011;23129;49.662;8.448;2023-07-08T06:42:37;10.55;;;6.03;;
37237;SDS011;23129;49.662;8.448;2023-07-08T06:45:28;13.50;;;5.15;;
37237;SDS011;23129;49.662;8.448;2023-07-08T06:47:57;10.52;;;4.60;;
37237;SDS011;23129;49.662;8.448;2023-07-08T06:50:25;9.55;;;5.82;;
37237;SDS011;23129;49.662;8.448;2023-07-08T06:52:54;8.75;;;5.38;;
37237;SDS011;23129;49.662;8.448;2023-07-08T06:55:23;13.02;;;5.53;;
37237;SDS011;23129;49.662;8.448;2023-07-08T06:57:53;10.10;;;5.82;;
37237;SDS011;23129;49.662;8.448;2023-07-08T07:00:21;11.75;;;5.38;;
37237;SDS011;23129;49.662;8.448;2023-07-08T07:02:50;10.68;;;5.70;;
37237;SDS011;23129;49.662;8.448;2023-07-08T07:05:19;11.65;;;5.43;;
37237;SDS011;23129;49.662;8.448;2023-07-08T07:07:49;11.63;;;5.43;;
37237;SDS011;23129;49.662;8.448;2023-07-08T07:10:19;14.70;;;5.97;;
37237;SDS011;23129;49.662;8.448;2023-07-08T07:12:48;11.93;;;6.32;;
37237;SDS011;23129;49.662;8.448;2023-07-08T07:15:17;12.93;;;6.35;;
37237;SDS011;23129;49.662;8.448;2023-07-08T07:17:46;24.92;;;6.65;;
37237;SDS011;23129;49.662;8.448;2023-07-08T07:20:14;15.68;;;6.65;;
37237;SDS011;23129;49.662;8.448;2023-07-08T07:22:43;11.63;;;6.15;;
37237;SDS011;23129;49.662;8.448;2023-07-08T07:25:11;9.20;;;6.03;;
37237;SDS011;23129;49.662;8.448;2023-07-08T07:27:40;10.02;;;5.95;;
37237;SDS011;23129;49.662;8.448;2023-07-08T07:30:09;13.35;;;6.40;;
37237;SDS011;23129;49.662;8.448;2023-07-08T07:32:42;8.88;;;5.47;;
37237;SDS011;23129;49.662;8.448;2023-07-08T07:35:11;17.10;;;6.15;;
37237;SDS011;23129;49.662;8.448;2023-07-08T07:37:42;10.25;;;6.05;;
37237;SDS011;23129;49.662;8.448;2023-07-08T07:40:11;11.95;;;5.10;;
37237;SDS011;23129;49.662;8.448;2023-07-08T07:42:42;11.25;;;5.28;;
37237;SDS011;23129;49.662;8.448;2023-07-08T07:45:12;9.30;;;5.93;;
37237;SDS011;23129;49.662;8.448;2023-07-08T07:47:42;8.45;;;5.68;;
37237;SDS011;23129;49.662;8.448;2023-07-08T07:50:11;14.85;;;5.53;;
37237;SDS011;23129;49.662;8.448;2023-07-08T07:52:40;12.48;;;5.90;;
37237;SDS011;23129;49.662;8.448;2023-07-08T07:55:10;12.98;;;4.78;;
37237;SDS011;23129;49.662;8.448;2023-07-08T07:57:39;10.43;;;4.68;;
37237;SDS011;23129;49.662;8.448;2023-07-08T08:00:12;9.88;;;5.60;;
37237;SDS011;23129;49.662;8.448;2023-07-08T08:02:45;8.38;;;5.68;;
37237;SDS011;23129;49.662;8.448;2023-07-08T08:05:14;11.02;;;5.28;;
37237;SDS011;23129;49.662;8.448;2023-07-08T08:07:43;12.05;;;7.95;;
37237;SDS011;23129;49.662;8.448;2023-07-08T08:10:11;17.45;;;7.32;;
37237;SDS011;23129;49.662;8.448;2023-07-08T08:12:40;14.30;;;6.35;;
37237;SDS011;23129;49.662;8.448;2023-07-08T08:15:19;15.90;;;5.53;;
37237;SDS011;23129;49.662;8.448;2023-07-08T08:17:50;7.80;;;5.30;;
37237;SDS011;23129;49.662;8.448;2023-07-08T08:20:19;10.07;;;5.15;;
37237;SDS011;23129;49.662;8.448;2023-07-08T08:22:49;15.07;;;5.78;;
37237;SDS011;23129;49.662;8.448;2023-07-08T08:25:18;10.82;;;5.22;;
37237;SDS011;23129;49.662;8.448;2023-07-08T08:27:48;10.95;;;5.32;;
37237;SDS011;23129;49.662;8.448;2023-07-08T08:30:18;11.48;;;5.22;;
37237;SDS011;23129;49.662;8.448;2023-07-08T08:32:47;8.65;;;5.15;;
37237;SDS011;23129;49.662;8.448;2023-07-08T08:35:17;9.23;;;5.60;;
37237;SDS011;23129;49.662;8.448;2023-07-08T08:37:46;14.32;;;4.60;;
37237;SDS011;23129;49.662;8.448;2023-07-08T08:40:15;13.13;;;4.53;;
37237;SDS011;23129;49.662;8.448;2023-07-08T08:42:50;10.48;;;5.20;;
37237;SDS011;23129;49.662;8.448;2023-07-08T08:45:24;12.25;;;4.82;;
37237;SDS011;23129;49.662;8.448;2023-07-08T08:47:58;10.32;;;5.75;;
37237;SDS011;23129;49.662;8.448;2023-07-08T08:50:32;8.18;;;4.30;;
37237;SDS011;23129;49.662;8.448;2023-07-08T08:53:11;15.15;;;4.53;;
37237;SDS011;23129;49.662;8.448;2023-07-08T08:55:43;7.72;;;4.85;;
37237;SDS011;23129;49.662;8.448;2023-07-08T08:58:22;8.73;;;4.90;;
37237;SDS011;23129;49.662;8.448;2023-07-08T09:01:04;11.48;;;4.43;;
37237;SDS011;23129;49.662;8.448;2023-07-08T09:03:41;6.15;;;4.10;;
37237;SDS011;23129;49.662;8.448;2023-07-08T09:06:16;9.93;;;4.00;;
37237;SDS011;23129;49.662;8.448;2023-07-08T09:08:48;13.75;;;5.28;;
37237;SDS011;23129;49.662;8.448;2023-07-08T09:11:35;7.63;;;4.40;;
37237;SDS011;23129;49.662;8.448;2023-07-08T09:14:13;11.65;;;4.45;;
37237;SDS011;23129;49.662;8.448;2023-07-08T09:16:45;13.48;;;4.32;;
37237;SDS011;23129;49.662;8.448;2023-07-08T09:19:26;4.97;;;3.85;;
37237;SDS011;23129;49.662;8.448;2023-07-08T09:22:01;9.65;;;3.58;;
37237;SDS011;23129;49.662;8.448;2023-07-08T09:24:40;5.35;;;3.70;;
37237;SDS011;23129;49.662;8.448;2023-07-08T09:27:11;8.93;;;3.70;;
37237;SDS011;23129;49.662;8.448;2023-07-08T09:29:40;7.63;;;3.75;;
37237;SDS011;23129;49.662;8.448;2023-07-08T09:32:14;7.40;;;3.92;;
37237;SDS011;23129;49.662;8.448;2023-07-08T09:34:46;12.30;;;4.35;;
37237;SDS011;23129;49.662;8.448;2023-07-08T09:37:22;7.97;;;4.15;;
37237;SDS011;23129;49.662;8.448;2023-07-08T09:39:55;6.90;;;3.42;;
37237;SDS011;23129;49.662;8.448;2023-07-08T09:42:28;6.93;;;3.78;;
37237;SDS011;23129;49.662;8.448;2023-07-08T09:45:00;8.82;;;3.83;;
37237;SDS011;23129;49.662;8.448;2023-07-08T09:47:37;8.82;;;3.97;;
37237;SDS011;23129;49.662;8.448;2023-07-08T09:50:17;12.02;;;4.00;;
37237;SDS011;23129;49.662;8.448;2023-07-08T09:52:47;6.32;;;3.42;;
37237;SDS011;23129;49.662;8.448;2023-07-08T09:55:17;7.32;;;3.65;;
37237;SDS011;23129;49.662;8.448;2023-07-08T09:57:47;11.93;;;3.38;;
37237;SDS011;23129;49.662;8.448;2023-07-08T10:00:18;7.63;;;4.10;;
37237;SDS011;23129;49.662;8.448;2023-07-08T10:02:56;6.68;;;3.72;;
37237;SDS011;23129;49.662;8.448;2023-07-08T10:05:29;10.13;;;4.55;;
37237;SDS011;23129;49.662;8.448;2023-07-08T10:08:02;8.20;;;4.10;;
37237;SDS011;23129;49.662;8.448;2023-07-08T10:10:39;8.07;;;4.10;;
37237;SDS011;23129;49.662;8.448;2023-07-08T10:13:12;9.05;;;4.50;;
37237;SDS011;23129;49.662;8.448;2023-07-08T10:15:46;6.70;;;3.70;;
37237;SDS011;23129;49.662;8.448;2023-07-08T10:18:21;9.95;;;4.40;;
37237;SDS011;23129;49.662;8.448;2023-07-08T10:23:34;6.68;;;4.32;;
37237;SDS011;23129;49.662;8.448;2023-07-08T10:26:13;8.90;;;4.50;;
37237;SDS011;23129;49.662;8.448;2023-07-08T10:28:49;7.90;;;3.88;;
37237;SDS011;23129;49.662;8.448;2023-07-08T10:31:30;7.28;;;4.32;;
37237;SDS011;23129;49.662;8.448;2023-07-08T10:34:18;8.57;;;4.05;;
37237;SDS011;23129;49.662;8.448;2023-07-08T10:36:58;7.78;;;4.47;;
37237;SDS011;23129;49.662;8.448;2023-07-08T10:39:39;13.20;;;4.10;;
37237;SDS011;23129;49.662;8.448;2023-07-08T10:42:17;12.40;;;5.20;;
37237;SDS011;23129;49.662;8.448;2023-07-08T10:44:58;6.47;;;4.20;;
37237;SDS011;23129;49.662;8.448;2023-07-08T10:47:43;12.68;;;3.78;;
37237;SDS011;23129;49.662;8.448;2023-07-08T10:50:30;5.43;;;3.90;;
37237;SDS011;23129;49.662;8.448;2023-07-08T10:53:26;5.60;;;4.15;;
37237;SDS011;23129;49.662;8.448;2023-07-08T10:56:10;8.00;;;4.50;;
37237;SDS011;23129;49.662;8.448;2023-07-08T10:59:01;5.05;;;3.83;;
37237;SDS011;23129;49.662;8.448;2023-07-08T11:01:54;7.10;;;4.32;;
37237;SDS011;23129;49.662;8.448;2023-07-08T11:04:48;7.30;;;4.25;;
37237;SDS011;23129;49.662;8.448;2023-07-08T11:07:32;11.18;;;4.10;;
37237;SDS011;23129;49.662;8.448;2023-07-08T11:10:10;8.82;;;3.78;;
37237;SDS011;23129;49.662;8.448;2023-07-08T11:12:44;9.93;;;4.63;;
37237;SDS011;23129;49.662;8.448;2023-07-08T11:15:20;9.43;;;4.32;;
37237;SDS011;23129;49.662;8.448;2023-07-08T11:17:59;10.50;;;5.05;;
37237;SDS011;23129;49.662;8.448;2023-07-08T11:20:36;8.15;;;4.40;;
37237;SDS011;23129;49.662;8.448;2023-07-08T11:23:11;5.78;;;4.43;;
37237;SDS011;23129;49.662;8.448;2023-07-08T11:25:54;6.78;;;4.63;;
37237;SDS011;23129;49.662;8.448;2023-07-08T11:28:35;7.50;;;4.18;;
37237;SDS011;23129;49.662;8.448;2023-07-08T11:31:04;10.90;;;4.03;;
37237;SDS011;23129;49.662;8.448;2023-07-08T11:33:33;9.45;;;4.70;;
37237;SDS011;23129;49.662;8.448;2023-07-08T11:36:06;8.20;;;4.47;;
37237;SDS011;23129;49.662;8.448;2023-07-08T11:38:36;7.38;;;4.68;;
37237;SDS011;23129;49.662;8.448;2023-07-08T11:41:17;6.68;;;4.38;;
37237;SDS011;23129;49.662;8.448;2023-07-08T11:43:49;7.68;;;4.30;;
37237;SDS011;23129;49.662;8.448;2023-07-08T11:46:19;10.13;;;3.38;;
37237;SDS011;23129;49.662;8.448;2023-07-08T11:48:52;16.83;;;6.00;;
37237;SDS011;23129;49.662;8.448;2023-07-08T11:51:22;8.65;;;4.75;;
37237;SDS011;23129;49.662;8.448;2023-07-08T11:53:58;9.90;;;3.85;;
37237;SDS011;23129;49.662;8.448;2023-07-08T11:56:30;8.88;;;3.78;;
37237;SDS011;23129;49.662;8.448;2023-07-08T11:59:18;6.55;;;4.05;;
37237;SDS011;23129;49.662;8.448;2023-07-08T12:01:48;5.78;;;4.15;;
37237;SDS011;23129;49.662;8.448;2023-07-08T12:04:25;7.85;;;3.97;;
37237;SDS011;23129;49.662;8.448;2023-07-08T12:07:02;12.68;;;3.65;;
37237;SDS011;23129;49.662;8.448;2023-07-08T12:09:45;11.88;;;4.50;;
37237;SDS011;23129;49.662;8.448;2023-07-08T12:12:24;11.90;;;3.90;;
37237;SDS011;23129;49.662;8.448;2023-07-08T12:15:04;4.85;;;4.13;;
37237;SDS011;23129;49.662;8.448;2023-07-08T12:17:49;15.07;;;4.47;;
37237;SDS011;23129;49.662;8.448;2023-07-08T12:20:20;6.93;;;3.92;;
37237;SDS011;23129;49.662;8.448;2023-07-08T12:22:50;8.80;;;3.97;;
37237;SDS011;23129;49.662;8.448;2023-07-08T12:25:20;6.18;;;3.65;;
37237;SDS011;23129;49.662;8.448;2023-07-08T12:27:51;8.32;;;3.95;;
37237;SDS011;23129;49.662;8.448;2023-07-08T12:30:20;49.08;;;8.10;;
37237;SDS011;23129;49.662;8.448;2023-07-08T12:32:49;9.68;;;4.05;;
37237;SDS011;23129;49.662;8.448;2023-07-08T12:35:23;11.25;;;4.38;;
37237;SDS011;23129;49.662;8.448;2023-07-08T12:37:58;7.47;;;3.90;;
37237;SDS011;23129;49.662;8.448;2023-07-08T12:40:29;6.38;;;3.83;;
37237;SDS011;23129;49.662;8.448;2023-07-08T12:42:59;9.32;;;3.55;;
37237;SDS011;23129;49.662;8.448;2023-07-08T12:45:29;6.90;;;3.20;;
37237;SDS011;23129;49.662;8.448;2023-07-08T12:47:58;6.80;;;4.15;;
37237;SDS011;23129;49.662;8.448;2023-07-08T12:50:27;9.38;;;3.28;;
37237;SDS011;23129;49.662;8.448;2023-07-08T12:52:55;7.07;;;3.90;;
37237;SDS011;23129;49.662;8.448;2023-07-08T12:55:24;7.38;;;3.83;;
37237;SDS011;23129;49.662;8.448;2023-07-08T12:57:54;10.35;;;3.65;;
37237;SDS011;23129;49.662;8.448;2023-07-08T13:00:25;6.43;;;3.30;;
37237;SDS011;23129;49.662;8.448;2023-07-08T13:02:56;7.05;;;3.60;;
37237;SDS011;23129;49.662;8.448;2023-07-08T13:05:30;16.63;;;4.65;;
37237;SDS011;23129;49.662;8.448;2023-07-08T13:07:59;6.38;;;3.88;;
37237;SDS011;23129;49.662;8.448;2023-07-08T13:10:28;10.20;;;3.30;;
37237;SDS011;23129;49.662;8.448;2023-07-08T13:13:02;7.93;;;3.28;;
37237;SDS011;23129;49.662;8.448;2023-07-08T13:15:36;10.30;;;4.25;;
37237;SDS011;23129;49.662;8.448;2023-07-08T13:18:08;8.88;;;3.55;;
37237;SDS011;23129;49.662;8.448;2023-07-08T13:20:42;9.43;;;3.15;;
37237;SDS011;23129;49.662;8.448;2023-07-08T13:23:14;7.47;;;3.08;;
37237;SDS011;23129;49.662;8.448;2023-07-08T13:25:43;9.68;;;3.28;;
37237;SDS011;23129;49.662;8.448;2023-07-08T13:28:15;19.20;;;4.00;;
37237;SDS011;23129;49.662;8.448;2023-07-08T13:30:53;4.22;;;3.03;;
37237;SDS011;23129;49.662;8.448;2023-07-08T13:33:28;10.60;;;3.28;;
37237;SDS011;23129;49.662;8.448;2023-07-08T13:36:00;5.68;;;3.38;;
37237;SDS011;23129;49.662;8.448;2023-07-08T13:38:31;8.45;;;3.40;;
37237;SDS011;23129;49.662;8.448;2023-07-08T13:41:02;8.57;;;3.15;;
37237;SDS011;23129;49.662;8.448;2023-07-08T13:43:33;6.00;;;3.50;;
37237;SDS011;23129;49.662;8.448;2023-07-08T13:48:59;9.15;;;3.05;;
37237;SDS011;23129;49.662;8.448;2023-07-08T13:51:31;5.03;;;3.20;;
37237;SDS011;23129;49.662;8.448;2023-07-08T13:54:01;4.97;;;2.72;;
37237;SDS011;23129;49.662;8.448;2023-07-08T13:56:40;9.40;;;3.40;;
37237;SDS011;23129;49.662;8.448;2023-07-08T13:59:10;5.38;;;2.83;;
37237;SDS011;23129;49.662;8.448;2023-07-08T14:01:44;2.87;;;2.63;;
37237;SDS011;23129;49.662;8.448;2023-07-08T14:04:14;5.15;;;3.00;;
37237;SDS011;23129;49.662;8.448;2023-07-08T14:06:46;9.43;;;2.80;;
37237;SDS011;23129;49.662;8.448;2023-07-08T14:09:16;7.55;;;3.30;;
37237;SDS011;23129;49.662;8.448;2023-07-08T14:11:45;6.53;;;3.45;;
37237;SDS011;23129;49.662;8.448;2023-07-08T14:14:15;5.50;;;2.63;;
37237;SDS011;23129;49.662;8.448;2023-07-08T14:16:46;6.18;;;3.35;;
37237;SDS011;23129;49.662;8.448;2023-07-08T14:19:17;16.73;;;3.58;;
37237;SDS011;23129;49.662;8.448;2023-07-08T14:21:50;6.67;;;3.53;;
37237;SDS011;23129;49.662;8.448;2023-07-08T14:24:23;7.82;;;3.85;;
37237;SDS011;23129;49.662;8.448;2023-07-08T14:26:52;11.63;;;4.10;;
37237;SDS011;23129;49.662;8.448;2023-07-08T14:29:21;3.97;;;3.10;;
37237;SDS011;23129;49.662;8.448;2023-07-08T14:31:51;3.28;;;2.97;;
37237;SDS011;23129;49.662;8.448;2023-07-08T14:34:21;8.60;;;3.63;;
37237;SDS011;23129;49.662;8.448;2023-07-08T14:36:52;4.95;;;2.80;;
37237;SDS011;23129;49.662;8.448;2023-07-08T14:39:21;6.25;;;3.10;;
37237;SDS011;23129;49.662;8.448;2023-07-08T14:41:50;8.90;;;3.35;;
37237;SDS011;23129;49.662;8.448;2023-07-08T14:44:20;7.22;;;2.85;;
37237;SDS011;23129;49.662;8.448;2023-07-08T14:46:49;6.85;;;3.17;;
37237;SDS011;23129;49.662;8.448;2023-07-08T14:49:22;4.25;;;2.78;;
37237;SDS011;23129;49.662;8.448;2023-07-08T14:51:51;10.13;;;3.53;;
37237;SDS011;23129;49.662;8.448;2023-07-08T14:54:20;7.80;;;2.95;;
37237;SDS011;23129;49.662;8.448;2023-07-08T14:56:49;6.35;;;3.00;;
37237;SDS011;23129;49.662;8.448;2023-07-08T14:59:23;11.75;;;3.47;;
37237;SDS011;23129;49.662;8.448;2023-07-08T15:01:56;7.00;;;3.50;;
37237;SDS011;23129;49.662;8.448;2023-07-08T15:04:26;11.13;;;4.13;;
37237;SDS011;23129;49.662;8.448;2023-07-08T15:06:57;8.60;;;3.67;;
37237;SDS011;23129;49.662;8.448;2023-07-08T15:09:27;6.30;;;3.38;;
37237;SDS011;23129;49.662;8.448;2023-07-08T15:11:55;7.18;;;3.38;;
37237;SDS011;23129;49.662;8.448;2023-07-08T15:14:24;7.47;;;3.50;;
37237;SDS011;23129;49.662;8.448;2023-07-08T15:16:53;8.93;;;3.17;;